sensor_id;sensor_type;location;lat;lon;timestamp;pressure;altitude;pressure_sealevel;temperature;humidity
16525;BME280;8375;33.594;-117.718;2022-07-11T00:00:11;100210.97;;;31.19;35.49
16525;BME280;8375;33.594;-117.718;2022-07-11T00:02:40;100207.28;;;31.25;34.96
16525;BME280;8375;33.594;-117.718;2022-07-11T00:05:09;100209.72;;;31.32;34.49
16525;BME280;8375;33.594;-117.718;2022-07-11T00:07:38;100209.75;;;31.37;33.88
16525;BME280;8375;33.594;-117.718;2022-07-11T00:10:07;100209.25;;;30.80;34.26
16525;BME280;8375;33.594;-117.718;2022-07-11T00:12:37;100195.03;;;30.52;34.86
16525;BME280;8375;33.594;-117.718;2022-07-11T00:15:07;100195.72;;;30.42;35.48
16525;BME280;8375;33.594;-117.718;2022-07-11T00:17:36;100197.84;;;30.63;35.09
16525;BME280;8375;33.594;-117.718;2022-07-11T00:20:05;100195.97;;;30.63;35.28
16525;BME280;8375;33.594;-117.718;2022-07-11T00:22:34;100191.19;;;30.65;35.39
16525;BME280;8375;33.594;-117.718;2022-07-11T00:25:03;100192.50;;;30.40;35.13
16525;BME280;8375;33.594;-117.718;2022-07-11T00:27:31;100184.34;;;30.30;36.05
16525;BME280;8375;33.594;-117.718;2022-07-11T00:30:02;100188.31;;;30.50;36.53
16525;BME280;8375;33.594;-117.718;2022-07-11T00:32:32;100194.41;;;30.67;37.20
16525;BME280;8375;33.594;-117.718;2022-07-11T00:35:01;100182.97;;;30.77;36.63
16525;BME280;8375;33.594;-117.718;2022-07-11T00:37:30;100180.53;;;30.70;36.65
16525;BME280;8375;33.594;-117.718;2022-07-11T00:39:59;100175.63;;;30.40;37.07
16525;BME280;8375;33.594;-117.718;2022-07-11T00:42:28;100174.22;;;30.32;36.83
16525;BME280;8375;33.594;-117.718;2022-07-11T00:44:56;100173.16;;;30.33;38.05
16525;BME280;8375;33.594;-117.718;2022-07-11T00:47:27;100173.00;;;30.45;37.23
16525;BME280;8375;33.594;-117.718;2022-07-11T00:49:56;100176.84;;;30.54;38.14
16525;BME280;8375;33.594;-117.718;2022-07-11T00:52:24;100171.56;;;30.59;37.56
16525;BME280;8375;33.594;-117.718;2022-07-11T00:54:54;100165.16;;;30.38;37.36
16525;BME280;8375;33.594;-117.718;2022-07-11T00:57:23;100163.09;;;30.46;38.22
16525;BME280;8375;33.594;-117.718;2022-07-11T00:59:53;100152.13;;;30.47;37.39
16525;BME280;8375;33.594;-117.718;2022-07-11T01:02:22;100154.00;;;30.47;38.22
16525;BME280;8375;33.594;-117.718;2022-07-11T01:04:53;100155.91;;;30.51;37.85
16525;BME280;8375;33.594;-117.718;2022-07-11T01:07:22;100153.19;;;30.46;38.40
16525;BME280;8375;33.594;-117.718;2022-07-11T01:09:51;100148.78;;;30.35;38.63
16525;BME280;8375;33.594;-117.718;2022-07-11T01:12:20;100143.94;;;30.32;39.09
16525;BME280;8375;33.594;-117.718;2022-07-11T01:14:52;100147.56;;;30.20;39.32
16525;BME280;8375;33.594;-117.718;2022-07-11T01:17:21;100145.16;;;30.19;39.11
16525;BME280;8375;33.594;-117.718;2022-07-11T01:19:51;100137.34;;;30.17;38.93
16525;BME280;8375;33.594;-117.718;2022-07-11T01:22:24;100144.66;;;30.22;39.25
16525;BME280;8375;33.594;-117.718;2022-07-11T01:24:55;100141.25;;;30.04;39.11
16525;BME280;8375;33.594;-117.718;2022-07-11T01:27:24;100128.69;;;29.65;40.24
16525;BME280;8375;33.594;-117.718;2022-07-11T01:29:53;100132.34;;;29.59;41.05
16525;BME280;8375;33.594;-117.718;2022-07-11T01:32:22;100129.75;;;29.64;41.00
16525;BME280;8375;33.594;-117.718;2022-07-11T01:34:51;100136.50;;;29.50;41.53
16525;BME280;8375;33.594;-117.718;2022-07-11T01:37:19;100139.03;;;29.39;41.84
16525;BME280;8375;33.594;-117.718;2022-07-11T01:39:48;100140.88;;;29.22;41.61
16525;BME280;8375;33.594;-117.718;2022-07-11T01:42:19;100135.59;;;29.27;41.91
16525;BME280;8375;33.594;-117.718;2022-07-11T01:44:47;100127.84;;;29.25;42.30
16525;BME280;8375;33.594;-117.718;2022-07-11T01:47:16;100135.78;;;29.20;42.62
16525;BME280;8375;33.594;-117.718;2022-07-11T01:49:45;100134.16;;;29.02;43.50
16525;BME280;8375;33.594;-117.718;2022-07-11T01:52:14;100133.25;;;28.96;43.49
16525;BME280;8375;33.594;-117.718;2022-07-11T01:54:42;100136.75;;;28.97;43.27
16525;BME280;8375;33.594;-117.718;2022-07-11T01:57:11;100140.38;;;28.91;43.74
16525;BME280;8375;33.594;-117.718;2022-07-11T01:59:41;100139.81;;;28.89;44.11
16525;BME280;8375;33.594;-117.718;2022-07-11T02:02:10;100138.91;;;28.54;44.22
16525;BME280;8375;33.594;-117.718;2022-07-11T02:04:39;100137.44;;;28.05;44.92
16525;BME280;8375;33.594;-117.718;2022-07-11T02:07:08;100133.88;;;28.00;45.17
16525;BME280;8375;33.594;-117.718;2022-07-11T02:09:37;100136.69;;;27.81;46.14
16525;BME280;8375;33.594;-117.718;2022-07-11T02:12:07;100142.34;;;27.85;45.85
16525;BME280;8375;33.594;-117.718;2022-07-11T02:14:36;100140.75;;;27.60;46.62
16525;BME280;8375;33.594;-117.718;2022-07-11T02:17:07;100140.63;;;27.55;47.08
16525;BME280;8375;33.594;-117.718;2022-07-11T02:19:36;100148.72;;;27.48;46.71
16525;BME280;8375;33.594;-117.718;2022-07-11T02:22:04;100146.41;;;27.40;47.30
16525;BME280;8375;33.594;-117.718;2022-07-11T02:24:34;100146.88;;;27.36;47.71
16525;BME280;8375;33.594;-117.718;2022-07-11T02:27:02;100145.22;;;27.23;48.15
16525;BME280;8375;33.594;-117.718;2022-07-11T02:29:31;100144.53;;;27.16;48.19
16525;BME280;8375;33.594;-117.718;2022-07-11T02:32:00;100154.72;;;27.07;48.38
16525;BME280;8375;33.594;-117.718;2022-07-11T02:34:31;100149.22;;;26.90;48.63
16525;BME280;8375;33.594;-117.718;2022-07-11T02:37:00;100152.06;;;26.77;48.85
16525;BME280;8375;33.594;-117.718;2022-07-11T02:39:29;100155.28;;;26.67;49.31
16525;BME280;8375;33.594;-117.718;2022-07-11T02:41:57;100155.63;;;26.71;49.28
16525;BME280;8375;33.594;-117.718;2022-07-11T02:44:26;100153.38;;;26.56;49.38
16525;BME280;8375;33.594;-117.718;2022-07-11T02:46:55;100153.25;;;26.32;50.04
16525;BME280;8375;33.594;-117.718;2022-07-11T02:49:24;100157.09;;;26.17;50.45
16525;BME280;8375;33.594;-117.718;2022-07-11T02:51:54;100153.22;;;26.20;50.57
16525;BME280;8375;33.594;-117.718;2022-07-11T02:54:22;100160.00;;;26.16;50.29
16525;BME280;8375;33.594;-117.718;2022-07-11T02:56:51;100165.06;;;25.99;50.91
16525;BME280;8375;33.594;-117.718;2022-07-11T02:59:20;100163.13;;;26.06;50.98
16525;BME280;8375;33.594;-117.718;2022-07-11T03:01:49;100167.81;;;26.11;50.85
16525;BME280;8375;33.594;-117.718;2022-07-11T03:04:18;100168.31;;;26.01;51.08
16525;BME280;8375;33.594;-117.718;2022-07-11T03:06:47;100167.06;;;25.85;50.94
16525;BME280;8375;33.594;-117.718;2022-07-11T03:09:17;100171.97;;;25.62;52.09
16525;BME280;8375;33.594;-117.718;2022-07-11T03:11:46;100165.94;;;25.23;53.02
16525;BME280;8375;33.594;-117.718;2022-07-11T03:14:14;100169.69;;;25.15;53.65
16525;BME280;8375;33.594;-117.718;2022-07-11T03:16:43;100167.63;;;25.17;53.62
16525;BME280;8375;33.594;-117.718;2022-07-11T03:19:12;100184.78;;;25.15;54.24
16525;BME280;8375;33.594;-117.718;2022-07-11T03:21:40;100186.47;;;25.09;54.05
16525;BME280;8375;33.594;-117.718;2022-07-11T03:24:09;100188.94;;;25.04;54.33
16525;BME280;8375;33.594;-117.718;2022-07-11T03:26:40;100185.47;;;25.03;54.04
16525;BME280;8375;33.594;-117.718;2022-07-11T03:29:08;100193.31;;;24.92;54.33
16525;BME280;8375;33.594;-117.718;2022-07-11T03:31:37;100191.75;;;24.70;54.71
16525;BME280;8375;33.594;-117.718;2022-07-11T03:34:06;100199.19;;;24.55;54.93
16525;BME280;8375;33.594;-117.718;2022-07-11T03:36:34;100203.13;;;24.32;55.58
16525;BME280;8375;33.594;-117.718;2022-07-11T03:39:03;100209.91;;;24.21;55.65
16525;BME280;8375;33.594;-117.718;2022-07-11T03:41:32;100207.50;;;24.13;55.65
16525;BME280;8375;33.594;-117.718;2022-07-11T03:44:03;100216.06;;;24.15;55.93
16525;BME280;8375;33.594;-117.718;2022-07-11T03:46:32;100218.13;;;23.99;56.13
16525;BME280;8375;33.594;-117.718;2022-07-11T03:49:00;100221.16;;;24.03;56.17
16525;BME280;8375;33.594;-117.718;2022-07-11T03:51:29;100218.50;;;23.96;56.09
16525;BME280;8375;33.594;-117.718;2022-07-11T03:53:57;100216.66;;;23.77;56.08
16525;BME280;8375;33.594;-117.718;2022-07-11T03:56:26;100217.69;;;23.69;56.84
16525;BME280;8375;33.594;-117.718;2022-07-11T03:58:55;100222.38;;;23.47;56.62
16525;BME280;8375;33.594;-117.718;2022-07-11T04:01:25;100224.59;;;23.50;56.76
16525;BME280;8375;33.594;-117.718;2022-07-11T04:03:54;100226.66;;;23.41;56.99
16525;BME280;8375;33.594;-117.718;2022-07-11T04:06:22;100236.22;;;23.28;56.45
16525;BME280;8375;33.594;-117.718;2022-07-11T04:08:52;100244.91;;;23.15;56.86
16525;BME280;8375;33.594;-117.718;2022-07-11T04:11:20;100252.22;;;23.13;57.60
16525;BME280;8375;33.594;-117.718;2022-07-11T04:13:49;100249.84;;;23.25;56.85
16525;BME280;8375;33.594;-117.718;2022-07-11T04:16:18;100251.44;;;23.20;56.34
16525;BME280;8375;33.594;-117.718;2022-07-11T04:18:48;100260.38;;;23.12;56.59
16525;BME280;8375;33.594;-117.718;2022-07-11T04:21:17;100258.31;;;23.00;56.62
16525;BME280;8375;33.594;-117.718;2022-07-11T04:23:46;100255.66;;;23.07;56.12
16525;BME280;8375;33.594;-117.718;2022-07-11T04:26:15;100260.56;;;23.10;56.88
16525;BME280;8375;33.594;-117.718;2022-07-11T04:28:43;100267.09;;;23.08;56.90
16525;BME280;8375;33.594;-117.718;2022-07-11T04:31:12;100265.81;;;22.90;56.21
16525;BME280;8375;33.594;-117.718;2022-07-11T04:33:40;100267.97;;;22.73;56.56
16525;BME280;8375;33.594;-117.718;2022-07-11T04:36:11;100261.59;;;22.61;57.23
16525;BME280;8375;33.594;-117.718;2022-07-11T04:38:40;100256.44;;;22.46;57.57
16525;BME280;8375;33.594;-117.718;2022-07-11T04:41:10;100266.38;;;22.44;57.42
16525;BME280;8375;33.594;-117.718;2022-07-11T04:43:39;100264.50;;;22.37;57.64
16525;BME280;8375;33.594;-117.718;2022-07-11T04:46:07;100269.97;;;22.36;57.73
16525;BME280;8375;33.594;-117.718;2022-07-11T04:48:36;100266.94;;;22.32;57.82
16525;BME280;8375;33.594;-117.718;2022-07-11T04:51:05;100275.09;;;22.37;57.37
16525;BME280;8375;33.594;-117.718;2022-07-11T04:53:36;100277.50;;;22.32;57.15
16525;BME280;8375;33.594;-117.718;2022-07-11T04:56:06;100284.47;;;22.11;57.90
16525;BME280;8375;33.594;-117.718;2022-07-11T04:58:35;100276.97;;;22.15;57.75
16525;BME280;8375;33.594;-117.718;2022-07-11T05:01:03;100282.59;;;22.05;57.98
16525;BME280;8375;33.594;-117.718;2022-07-11T05:03:32;100283.75;;;21.96;58.57
16525;BME280;8375;33.594;-117.718;2022-07-11T05:06:01;100281.50;;;21.93;58.30
16525;BME280;8375;33.594;-117.718;2022-07-11T05:08:30;100280.25;;;21.89;58.21
16525;BME280;8375;33.594;-117.718;2022-07-11T05:11:04;100287.72;;;21.85;58.57
16525;BME280;8375;33.594;-117.718;2022-07-11T05:13:33;100294.25;;;21.89;58.73
16525;BME280;8375;33.594;-117.718;2022-07-11T05:16:02;100292.31;;;21.76;59.03
16525;BME280;8375;33.594;-117.718;2022-07-11T05:18:30;100289.47;;;21.78;59.12
16525;BME280;8375;33.594;-117.718;2022-07-11T05:20:59;100285.41;;;21.75;59.46
16525;BME280;8375;33.594;-117.718;2022-07-11T05:23:28;100286.53;;;21.66;60.13
16525;BME280;8375;33.594;-117.718;2022-07-11T05:25:57;100299.34;;;21.47;60.74
16525;BME280;8375;33.594;-117.718;2022-07-11T05:28:27;100293.06;;;21.48;60.90
16525;BME280;8375;33.594;-117.718;2022-07-11T05:30:55;100290.78;;;21.45;61.27
16525;BME280;8375;33.594;-117.718;2022-07-11T05:33:24;100293.16;;;21.40;61.56
16525;BME280;8375;33.594;-117.718;2022-07-11T05:35:53;100293.34;;;21.38;62.04
16525;BME280;8375;33.594;-117.718;2022-07-11T05:38:22;100290.84;;;21.15;62.62
16525;BME280;8375;33.594;-117.718;2022-07-11T05:40:51;100294.13;;;21.17;63.04
16525;BME280;8375;33.594;-117.718;2022-07-11T05:43:19;100293.31;;;21.02;63.25
16525;BME280;8375;33.594;-117.718;2022-07-11T05:45:51;100292.97;;;21.05;63.65
16525;BME280;8375;33.594;-117.718;2022-07-11T05:48:20;100287.03;;;21.03;63.65
16525;BME280;8375;33.594;-117.718;2022-07-11T05:50:48;100297.34;;;20.98;64.19
16525;BME280;8375;33.594;-117.718;2022-07-11T05:53:17;100292.38;;;20.88;64.69
16525;BME280;8375;33.594;-117.718;2022-07-11T05:55:46;100296.00;;;20.87;65.10
16525;BME280;8375;33.594;-117.718;2022-07-11T05:58:15;100295.53;;;20.83;65.36
16525;BME280;8375;33.594;-117.718;2022-07-11T06:00:44;100295.25;;;20.78;66.07
16525;BME280;8375;33.594;-117.718;2022-07-11T06:03:15;100287.53;;;20.76;66.08
16525;BME280;8375;33.594;-117.718;2022-07-11T06:05:44;100283.59;;;20.72;66.39
16525;BME280;8375;33.594;-117.718;2022-07-11T06:08:12;100288.69;;;20.74;66.49
16525;BME280;8375;33.594;-117.718;2022-07-11T06:10:58;100280.34;;;20.70;66.86
16525;BME280;8375;33.594;-117.718;2022-07-11T06:13:28;100284.50;;;20.64;67.23
16525;BME280;8375;33.594;-117.718;2022-07-11T06:15:58;100282.22;;;20.61;68.13
16525;BME280;8375;33.594;-117.718;2022-07-11T06:18:28;100290.34;;;20.60;68.20
16525;BME280;8375;33.594;-117.718;2022-07-11T06:20:57;100295.25;;;20.63;68.19
16525;BME280;8375;33.594;-117.718;2022-07-11T06:23:26;100281.31;;;20.54;68.88
16525;BME280;8375;33.594;-117.718;2022-07-11T06:25:56;100280.88;;;20.50;69.59
16525;BME280;8375;33.594;-117.718;2022-07-11T06:28:25;100282.78;;;20.42;69.42
16525;BME280;8375;33.594;-117.718;2022-07-11T06:30:54;100277.44;;;20.35;69.83
16525;BME280;8375;33.594;-117.718;2022-07-11T06:33:23;100279.59;;;20.31;70.34
16525;BME280;8375;33.594;-117.718;2022-07-11T06:35:54;100270.59;;;20.26;70.38
16525;BME280;8375;33.594;-117.718;2022-07-11T06:38:23;100274.75;;;20.20;70.38
16525;BME280;8375;33.594;-117.718;2022-07-11T06:40:52;100268.50;;;20.21;70.60
16525;BME280;8375;33.594;-117.718;2022-07-11T06:43:23;100272.59;;;20.23;70.52
16525;BME280;8375;33.594;-117.718;2022-07-11T06:45:52;100273.84;;;20.13;70.48
16525;BME280;8375;33.594;-117.718;2022-07-11T06:48:22;100273.75;;;20.06;71.39
16525;BME280;8375;33.594;-117.718;2022-07-11T06:50:50;100282.00;;;20.03;71.37
16525;BME280;8375;33.594;-117.718;2022-07-11T06:53:21;100287.28;;;20.03;71.58
16525;BME280;8375;33.594;-117.718;2022-07-11T06:55:50;100280.91;;;19.97;72.31
16525;BME280;8375;33.594;-117.718;2022-07-11T06:58:19;100291.63;;;19.96;72.55
16525;BME280;8375;33.594;-117.718;2022-07-11T07:01:00;100282.63;;;19.82;72.94
16525;BME280;8375;33.594;-117.718;2022-07-11T07:03:31;100281.47;;;19.84;73.42
16525;BME280;8375;33.594;-117.718;2022-07-11T07:06:00;100282.19;;;19.78;73.69
16525;BME280;8375;33.594;-117.718;2022-07-11T07:08:31;100280.72;;;19.75;73.63
16525;BME280;8375;33.594;-117.718;2022-07-11T07:11:00;100273.16;;;19.72;74.18
16525;BME280;8375;33.594;-117.718;2022-07-11T07:13:29;100276.78;;;19.71;74.54
16525;BME280;8375;33.594;-117.718;2022-07-11T07:15:59;100277.44;;;19.73;74.92
16525;BME280;8375;33.594;-117.718;2022-07-11T07:18:28;100272.72;;;19.69;74.80
16525;BME280;8375;33.594;-117.718;2022-07-11T07:20:57;100280.31;;;19.63;75.30
16525;BME280;8375;33.594;-117.718;2022-07-11T07:23:26;100284.81;;;19.55;75.43
16525;BME280;8375;33.594;-117.718;2022-07-11T07:25:56;100282.06;;;19.48;75.86
16525;BME280;8375;33.594;-117.718;2022-07-11T07:28:25;100285.84;;;19.45;76.38
16525;BME280;8375;33.594;-117.718;2022-07-11T07:30:55;100283.22;;;19.45;76.13
16525;BME280;8375;33.594;-117.718;2022-07-11T07:33:23;100279.25;;;19.49;76.41
16525;BME280;8375;33.594;-117.718;2022-07-11T07:35:52;100283.75;;;19.41;76.63
16525;BME280;8375;33.594;-117.718;2022-07-11T07:38:21;100283.47;;;19.35;77.08
16525;BME280;8375;33.594;-117.718;2022-07-11T07:40:50;100285.91;;;19.37;77.55
16525;BME280;8375;33.594;-117.718;2022-07-11T07:43:20;100279.59;;;19.23;77.88
16525;BME280;8375;33.594;-117.718;2022-07-11T07:45:49;100280.47;;;19.07;78.97
16525;BME280;8375;33.594;-117.718;2022-07-11T07:48:18;100281.81;;;18.95;79.52
16525;BME280;8375;33.594;-117.718;2022-07-11T07:50:47;100278.53;;;18.92;79.35
16525;BME280;8375;33.594;-117.718;2022-07-11T07:53:16;100273.81;;;18.88;79.42
16525;BME280;8375;33.594;-117.718;2022-07-11T07:55:45;100271.50;;;18.85;79.66
16525;BME280;8375;33.594;-117.718;2022-07-11T07:58:13;100268.38;;;18.81;79.51
16525;BME280;8375;33.594;-117.718;2022-07-11T08:00:44;100274.03;;;18.70;80.64
16525;BME280;8375;33.594;-117.718;2022-07-11T08:03:29;100266.69;;;18.48;81.86
16525;BME280;8375;33.594;-117.718;2022-07-11T08:05:58;100270.66;;;18.36;82.42
16525;BME280;8375;33.594;-117.718;2022-07-11T08:08:27;100273.59;;;18.41;82.94
16525;BME280;8375;33.594;-117.718;2022-07-11T08:10:56;100261.75;;;18.45;82.81
16525;BME280;8375;33.594;-117.718;2022-07-11T08:13:27;100259.94;;;18.54;82.81
16525;BME280;8375;33.594;-117.718;2022-07-11T08:15:57;100264.84;;;18.57;82.66
16525;BME280;8375;33.594;-117.718;2022-07-11T08:18:26;100256.28;;;18.64;83.36
16525;BME280;8375;33.594;-117.718;2022-07-11T08:20:55;100255.31;;;18.65;82.93
16525;BME280;8375;33.594;-117.718;2022-07-11T08:23:24;100258.59;;;18.67;83.16
16525;BME280;8375;33.594;-117.718;2022-07-11T08:25:52;100252.53;;;18.50;83.81
16525;BME280;8375;33.594;-117.718;2022-07-11T08:28:21;100255.81;;;18.52;84.14
16525;BME280;8375;33.594;-117.718;2022-07-11T08:30:50;100249.59;;;18.44;84.70
16525;BME280;8375;33.594;-117.718;2022-07-11T08:33:20;100244.84;;;18.48;84.49
16525;BME280;8375;33.594;-117.718;2022-07-11T08:35:49;100243.84;;;18.49;84.43
16525;BME280;8375;33.594;-117.718;2022-07-11T08:38:17;100251.25;;;18.45;85.20
16525;BME280;8375;33.594;-117.718;2022-07-11T08:40:49;100248.16;;;18.33;85.41
16525;BME280;8375;33.594;-117.718;2022-07-11T08:43:21;100252.78;;;18.31;85.94
16525;BME280;8375;33.594;-117.718;2022-07-11T08:45:51;100253.56;;;18.32;85.52
16525;BME280;8375;33.594;-117.718;2022-07-11T08:48:23;100250.78;;;18.33;85.45
16525;BME280;8375;33.594;-117.718;2022-07-11T08:50:52;100251.44;;;18.36;85.51
16525;BME280;8375;33.594;-117.718;2022-07-11T08:53:20;100245.69;;;18.40;85.38
16525;BME280;8375;33.594;-117.718;2022-07-11T08:55:49;100250.78;;;18.42;85.09
16525;BME280;8375;33.594;-117.718;2022-07-11T08:58:18;100248.94;;;18.42;84.93
16525;BME280;8375;33.594;-117.718;2022-07-11T09:00:46;100244.84;;;18.48;84.98
16525;BME280;8375;33.594;-117.718;2022-07-11T09:03:16;100237.44;;;18.52;84.38
16525;BME280;8375;33.594;-117.718;2022-07-11T09:05:46;100245.50;;;18.50;84.46
16525;BME280;8375;33.594;-117.718;2022-07-11T09:08:15;100235.16;;;18.40;84.52
16525;BME280;8375;33.594;-117.718;2022-07-11T09:10:44;100226.78;;;18.45;84.59
16525;BME280;8375;33.594;-117.718;2022-07-11T09:13:13;100228.75;;;18.43;84.33
16525;BME280;8375;33.594;-117.718;2022-07-11T09:15:45;100232.53;;;18.40;84.60
16525;BME280;8375;33.594;-117.718;2022-07-11T09:18:29;100244.22;;;18.38;84.63
16525;BME280;8375;33.594;-117.718;2022-07-11T09:21:01;100231.53;;;18.41;84.83
16525;BME280;8375;33.594;-117.718;2022-07-11T09:23:47;100234.03;;;18.35;84.52
16525;BME280;8375;33.594;-117.718;2022-07-11T09:26:35;100232.88;;;18.37;84.34
16525;BME280;8375;33.594;-117.718;2022-07-11T09:29:08;100229.75;;;18.42;83.90
16525;BME280;8375;33.594;-117.718;2022-07-11T09:31:38;100218.06;;;18.44;84.31
16525;BME280;8375;33.594;-117.718;2022-07-11T09:34:08;100220.22;;;18.41;83.75
16525;BME280;8375;33.594;-117.718;2022-07-11T09:36:40;100225.97;;;18.36;83.86
16525;BME280;8375;33.594;-117.718;2022-07-11T09:39:10;100223.84;;;18.40;84.10
16525;BME280;8375;33.594;-117.718;2022-07-11T09:41:40;100236.50;;;18.36;83.58
16525;BME280;8375;33.594;-117.718;2022-07-11T09:44:13;100226.31;;;18.33;83.60
16525;BME280;8375;33.594;-117.718;2022-07-11T09:46:43;100219.59;;;18.39;83.30
16525;BME280;8375;33.594;-117.718;2022-07-11T09:49:12;100225.16;;;18.36;83.66
16525;BME280;8375;33.594;-117.718;2022-07-11T09:51:43;100226.81;;;18.37;83.57
16525;BME280;8375;33.594;-117.718;2022-07-11T09:54:12;100225.19;;;18.27;83.93
16525;BME280;8375;33.594;-117.718;2022-07-11T09:56:42;100217.47;;;18.26;84.61
16525;BME280;8375;33.594;-117.718;2022-07-11T09:59:12;100217.47;;;18.26;84.44
16525;BME280;8375;33.594;-117.718;2022-07-11T10:01:41;100219.44;;;18.24;84.97
16525;BME280;8375;33.594;-117.718;2022-07-11T10:04:10;100223.25;;;18.21;84.65
16525;BME280;8375;33.594;-117.718;2022-07-11T10:06:39;100215.03;;;18.24;84.42
16525;BME280;8375;33.594;-117.718;2022-07-11T10:09:09;100218.81;;;18.05;85.37
16525;BME280;8375;33.594;-117.718;2022-07-11T10:11:39;100211.78;;;17.81;86.15
16525;BME280;8375;33.594;-117.718;2022-07-11T10:14:07;100214.06;;;17.76;86.86
16525;BME280;8375;33.594;-117.718;2022-07-11T10:16:43;100217.34;;;17.78;86.92
16525;BME280;8375;33.594;-117.718;2022-07-11T10:19:36;100214.53;;;17.87;87.18
16525;BME280;8375;33.594;-117.718;2022-07-11T10:22:19;100211.91;;;17.96;86.66
16525;BME280;8375;33.594;-117.718;2022-07-11T10:24:56;100214.56;;;18.04;86.18
16525;BME280;8375;33.594;-117.718;2022-07-11T10:27:33;100210.78;;;18.07;86.47
16525;BME280;8375;33.594;-117.718;2022-07-11T10:30:04;100215.22;;;18.06;85.52
16525;BME280;8375;33.594;-117.718;2022-07-11T10:32:33;100214.41;;;18.06;85.44
16525;BME280;8375;33.594;-117.718;2022-07-11T10:35:21;100211.44;;;18.09;85.39
16525;BME280;8375;33.594;-117.718;2022-07-11T10:37:52;100213.91;;;18.02;84.86
16525;BME280;8375;33.594;-117.718;2022-07-11T10:40:46;100210.63;;;18.00;85.44
16525;BME280;8375;33.594;-117.718;2022-07-11T10:43:31;100205.69;;;17.88;85.91
16525;BME280;8375;33.594;-117.718;2022-07-11T10:46:04;100205.88;;;17.87;85.62
16525;BME280;8375;33.594;-117.718;2022-07-11T10:48:34;100209.94;;;17.89;85.84
16525;BME280;8375;33.594;-117.718;2022-07-11T10:51:15;100215.03;;;17.91;85.89
16525;BME280;8375;33.594;-117.718;2022-07-11T10:53:51;100214.88;;;17.93;86.04
16525;BME280;8375;33.594;-117.718;2022-07-11T10:56:56;100205.38;;;18.00;86.18
16525;BME280;8375;33.594;-117.718;2022-07-11T10:59:25;100201.75;;;18.01;86.20
16525;BME280;8375;33.594;-117.718;2022-07-11T11:02:10;100209.63;;;18.01;85.92
16525;BME280;8375;33.594;-117.718;2022-07-11T11:04:47;100210.28;;;18.03;85.43
16525;BME280;8375;33.594;-117.718;2022-07-11T11:07:32;100210.78;;;17.98;85.22
16525;BME280;8375;33.594;-117.718;2022-07-11T11:10:07;100213.75;;;18.03;84.99
16525;BME280;8375;33.594;-117.718;2022-07-11T11:13:13;100213.75;;;18.03;85.30
16525;BME280;8375;33.594;-117.718;2022-07-11T11:15:48;100211.94;;;18.04;84.47
16525;BME280;8375;33.594;-117.718;2022-07-11T11:18:47;100209.78;;;17.99;84.52
16525;BME280;8375;33.594;-117.718;2022-07-11T11:21:22;100203.25;;;17.79;86.22
16525;BME280;8375;33.594;-117.718;2022-07-11T11:24:03;100204.06;;;17.63;86.62
16525;BME280;8375;33.594;-117.718;2022-07-11T11:26:45;100207.50;;;17.63;86.77
16525;BME280;8375;33.594;-117.718;2022-07-11T11:29:23;100208.81;;;17.67;86.80
16525;BME280;8375;33.594;-117.718;2022-07-11T11:31:54;100210.63;;;17.58;87.42
16525;BME280;8375;33.594;-117.718;2022-07-11T11:34:23;100213.41;;;17.65;87.40
16525;BME280;8375;33.594;-117.718;2022-07-11T11:36:54;100212.44;;;17.58;87.68
16525;BME280;8375;33.594;-117.718;2022-07-11T11:39:25;100216.84;;;17.57;87.53
16525;BME280;8375;33.594;-117.718;2022-07-11T11:41:54;100210.13;;;17.63;87.36
16525;BME280;8375;33.594;-117.718;2022-07-11T11:44:30;100213.06;;;17.27;88.93
16525;BME280;8375;33.594;-117.718;2022-07-11T11:46:59;100210.41;;;17.10;90.23
16525;BME280;8375;33.594;-117.718;2022-07-11T11:49:27;100209.09;;;17.14;91.64
16525;BME280;8375;33.594;-117.718;2022-07-11T11:51:56;100200.25;;;17.15;90.75
16525;BME280;8375;33.594;-117.718;2022-07-11T11:54:25;100199.63;;;17.22;90.49
16525;BME280;8375;33.594;-117.718;2022-07-11T11:56:54;100202.22;;;17.13;91.00
16525;BME280;8375;33.594;-117.718;2022-07-11T11:59:30;100199.75;;;17.20;90.64
16525;BME280;8375;33.594;-117.718;2022-07-11T12:01:59;100200.94;;;17.26;90.52
16525;BME280;8375;33.594;-117.718;2022-07-11T12:04:31;100201.59;;;17.28;90.00
16525;BME280;8375;33.594;-117.718;2022-07-11T12:07:00;100197.66;;;17.32;89.71
16525;BME280;8375;33.594;-117.718;2022-07-11T12:09:29;100200.13;;;17.42;89.72
16525;BME280;8375;33.594;-117.718;2022-07-11T12:12:20;100199.31;;;17.41;89.15
16525;BME280;8375;33.594;-117.718;2022-07-11T12:15:22;100197.81;;;17.47;89.02
16525;BME280;8375;33.594;-117.718;2022-07-11T12:17:53;100196.34;;;17.53;89.00
16525;BME280;8375;33.594;-117.718;2022-07-11T12:20:39;100198.00;;;17.62;88.93
16525;BME280;8375;33.594;-117.718;2022-07-11T12:23:10;100201.28;;;17.64;87.70
16525;BME280;8375;33.594;-117.718;2022-07-11T12:25:39;100201.28;;;17.72;87.85
16525;BME280;8375;33.594;-117.718;2022-07-11T12:28:08;100204.22;;;17.61;88.12
16525;BME280;8375;33.594;-117.718;2022-07-11T12:30:38;100203.41;;;17.60;88.77
16525;BME280;8375;33.594;-117.718;2022-07-11T12:33:08;100208.50;;;17.62;88.38
16525;BME280;8375;33.594;-117.718;2022-07-11T12:35:51;100211.13;;;17.62;89.01
16525;BME280;8375;33.594;-117.718;2022-07-11T12:38:21;100206.69;;;17.54;87.92
16525;BME280;8375;33.594;-117.718;2022-07-11T12:41:00;100201.09;;;17.57;88.20
16525;BME280;8375;33.594;-117.718;2022-07-11T12:43:40;100204.22;;;17.61;88.24
16525;BME280;8375;33.594;-117.718;2022-07-11T12:46:28;100203.06;;;17.55;88.06
16525;BME280;8375;33.594;-117.718;2022-07-11T12:48:59;100211.78;;;17.56;87.97